sensor_id;sensor_type;location;lat;lon;timestamp;P1;durP1;ratioP1;P2;durP2;ratioP2
55350;SDS011;41222;48.616;9.032;2022-07-10T11:27:09;2.60;;;0.82;;
55350;SDS011;41222;48.616;9.032;2022-07-10T11:27:55;2.12;;;0.87;;
55350;SDS011;41222;48.616;9.032;2022-07-10T11:28:15;2.36;;;0.82;;
55350;SDS011;41222;48.616;9.032;2022-07-10T11:28:51;2.75;;;0.90;;
55350;SDS011;41222;48.616;9.032;2022-07-10T11:28:59;2.69;;;0.94;;
55350;SDS011;41222;48.616;9.032;2022-07-10T11:29:07;2.99;;;1.21;;
55350;SDS011;41222;48.616;9.032;2022-07-10T11:29:17;3.10;;;1.29;;
55350;SDS011;41222;48.616;9.032;2022-07-10T11:29:23;2.97;;;1.30;;
55350;SDS011;41222;48.616;9.032;2022-07-10T11:29:29;2.53;;;1.20;;
55350;SDS011;41222;48.616;9.032;2022-07-10T11:29:43;2.29;;;1.04;;
55350;SDS011;41222;48.616;9.032;2022-07-10T11:29:59;2.23;;;0.94;;
55350;SDS011;41222;48.616;9.032;2022-07-10T11:30:05;2.30;;;0.80;;
55350;SDS011;41222;48.616;9.032;2022-07-10T11:30:11;2.63;;;0.90;;
55350;SDS011;41222;48.616;9.032;2022-07-10T11:30:16;2.47;;;0.80;;
55350;SDS011;41222;48.616;9.032;2022-07-10T11:30:25;2.37;;;0.80;;
55350;SDS011;41222;48.616;9.032;2022-07-10T11:30:42;2.80;;;1.08;;
55350;SDS011;41222;48.616;9.032;2022-07-10T11:31:00;2.35;;;0.96;;
55350;SDS011;41222;48.616;9.032;2022-07-10T11:31:06;1.73;;;0.73;;
55350;SDS011;41222;48.616;9.032;2022-07-10T11:31:11;1.80;;;0.70;;
55350;SDS011;41222;48.616;9.032;2022-07-10T11:31:17;1.97;;;0.70;;
55350;SDS011;41222;48.616;9.032;2022-07-10T11:31:24;1.94;;;0.70;;
55350;SDS011;41222;48.616;9.032;2022-07-10T11:31:31;1.85;;;0.70;;
55350;SDS011;41222;48.616;9.032;2022-07-10T11:31:42;1.63;;;0.83;;
55350;SDS011;41222;48.616;9.032;2022-07-10T11:31:57;2.08;;;0.95;;
55350;SDS011;41222;48.616;9.032;2022-07-10T11:32:03;1.90;;;0.90;;
55350;SDS011;41222;48.616;9.032;2022-07-10T11:32:09;2.60;;;0.90;;
55350;SDS011;41222;48.616;9.032;2022-07-10T11:32:15;1.92;;;0.75;;
55350;SDS011;41222;48.616;9.032;2022-07-10T11:32:21;2.00;;;0.73;;
55350;SDS011;41222;48.616;9.032;2022-07-10T11:32:27;2.45;;;0.77;;
55350;SDS011;41222;48.616;9.032;2022-07-10T11:32:33;2.93;;;0.80;;
55350;SDS011;41222;48.616;9.032;2022-07-10T11:32:39;2.20;;;0.80;;
55350;SDS011;41222;48.616;9.032;2022-07-10T11:32:44;2.40;;;0.80;;
55350;SDS011;41222;48.616;9.032;2022-07-10T11:32:50;2.33;;;0.88;;
55350;SDS011;41222;48.616;9.032;2022-07-10T11:33:03;2.13;;;0.82;;
55350;SDS011;41222;48.616;9.032;2022-07-10T11:33:10;2.04;;;0.85;;
55350;SDS011;41222;48.616;9.032;2022-07-10T11:33:20;2.70;;;0.90;;
55350;SDS011;41222;48.616;9.032;2022-07-10T11:33:27;2.97;;;0.95;;
55350;SDS011;41222;48.616;9.032;2022-07-10T11:33:40;3.32;;;1.00;;
55350;SDS011;41222;48.616;9.032;2022-07-10T11:33:51;2.91;;;0.90;;
55350;SDS011;41222;48.616;9.032;2022-07-10T11:33:58;3.09;;;0.92;;
55350;SDS011;41222;48.616;9.032;2022-07-10T11:34:04;3.27;;;0.90;;
55350;SDS011;41222;48.616;9.032;2022-07-10T11:34:09;3.25;;;0.90;;
55350;SDS011;41222;48.616;9.032;2022-07-10T11:34:15;3.00;;;0.90;;
55350;SDS011;62194;49.480;10.986;2022-07-10T11:34:21;3.00;;;0.80;;
55350;SDS011;62194;49.480;10.986;2022-07-10T11:34:34;2.90;;;0.83;;
55350;SDS011;62194;49.480;10.986;2022-07-10T11:34:40;2.55;;;0.84;;
55350;SDS011;62194;49.480;10.986;2022-07-10T11:34:46;2.72;;;0.90;;
55350;SDS011;62194;49.480;10.986;2022-07-10T11:34:51;2.60;;;0.93;;
55350;SDS011;62194;49.480;10.986;2022-07-10T11:34:57;2.67;;;0.98;;
55350;SDS011;62194;49.480;10.986;2022-07-10T11:35:05;2.70;;;1.00;;
55350;SDS011;62194;49.480;10.986;2022-07-10T11:35:16;3.00;;;1.00;;
55350;SDS011;62194;49.480;10.986;2022-07-10T11:35:21;2.65;;;0.90;;
55350;SDS011;62194;49.480;10.986;2022-07-10T11:35:27;3.00;;;1.03;;
55350;SDS011;62194;49.480;10.986;2022-07-10T11:35:32;4.55;;;1.05;;
55350;SDS011;62194;49.480;10.986;2022-07-10T11:35:38;3.83;;;1.10;;
55350;SDS011;62194;49.480;10.986;2022-07-10T11:35:45;3.57;;;1.07;;
55350;SDS011;62194;49.480;10.986;2022-07-10T11:35:52;3.56;;;1.00;;
55350;SDS011;62194;49.480;10.986;2022-07-10T11:36:01;1.83;;;0.80;;
55350;SDS011;62194;49.480;10.986;2022-07-10T11:36:19;2.53;;;0.86;;
55350;SDS011;62194;49.480;10.986;2022-07-10T11:36:33;3.15;;;0.90;;
55350;SDS011;62194;49.480;10.986;2022-07-10T11:36:39;2.97;;;0.90;;
55350;SDS011;62194;49.480;10.986;2022-07-10T11:36:44;1.45;;;0.80;;
55350;SDS011;62194;49.480;10.986;2022-07-10T11:36:52;1.20;;;0.72;;
55350;SDS011;62194;49.480;10.986;2022-07-10T11:36:58;1.30;;;0.70;;
55350;SDS011;62194;49.480;10.986;2022-07-10T11:37:12;1.25;;;0.70;;
55350;SDS011;62194;49.480;10.986;2022-07-10T11:37:19;1.76;;;0.74;;
55350;SDS011;62194;49.480;10.986;2022-07-10T11:37:25;1.80;;;0.80;;
55350;SDS011;62194;49.480;10.986;2022-07-10T11:37:34;1.67;;;0.80;;
55350;SDS011;62194;49.480;10.986;2022-07-10T11:37:48;1.63;;;0.87;;
55350;SDS011;62194;49.480;10.986;2022-07-10T11:37:59;1.67;;;0.76;;
55350;SDS011;62194;49.480;10.986;2022-07-10T11:38:06;1.48;;;0.73;;
55350;SDS011;62194;49.480;10.986;2022-07-10T11:38:11;1.40;;;0.70;;
55350;SDS011;62194;49.480;10.986;2022-07-10T11:38:23;1.73;;;0.80;;
55350;SDS011;62194;49.480;10.986;2022-07-10T11:38:30;1.92;;;0.84;;
55350;SDS011;62194;49.480;10.986;2022-07-10T11:38:36;2.15;;;0.90;;
55350;SDS011;62194;49.480;10.986;2022-07-10T11:38:44;1.98;;;0.90;;
55350;SDS011;62194;49.480;10.986;2022-07-10T11:38:55;1.63;;;0.90;;
55350;SDS011;62194;49.480;10.986;2022-07-10T11:39:05;2.20;;;0.80;;
55350;SDS011;62194;49.480;10.986;2022-07-10T11:39:11;3.33;;;0.80;;
55350;SDS011;62194;49.480;10.986;2022-07-10T11:39:17;3.30;;;0.70;;
55350;SDS011;62194;49.480;10.986;2022-07-10T11:39:23;3.30;;;0.70;;
55350;SDS011;62194;49.480;10.986;2022-07-10T11:39:29;3.17;;;0.70;;
55350;SDS011;62194;49.480;10.986;2022-07-10T11:39:35;2.03;;;0.80;;
55350;SDS011;62194;49.480;10.986;2022-07-10T11:39:40;1.70;;;0.80;;
55350;SDS011;62194;49.480;10.986;2022-07-10T11:39:46;1.60;;;0.80;;
55350;SDS011;62194;49.480;10.986;2022-07-10T11:39:51;1.65;;;0.80;;
55350;SDS011;62194;49.480;10.986;2022-07-10T11:40:13;1.47;;;0.83;;
55350;SDS011;62194;49.480;10.986;2022-07-10T11:40:20;2.13;;;0.88;;
55350;SDS011;62194;49.480;10.986;2022-07-10T11:40:25;2.87;;;0.90;;
55350;SDS011;62194;49.480;10.986;2022-07-10T11:40:35;2.55;;;1.00;;
55350;SDS011;62194;49.480;10.986;2022-07-10T11:40:44;2.20;;;1.00;;
55350;SDS011;62194;49.480;10.986;2022-07-10T11:40:49;1.70;;;0.95;;
55350;SDS011;62194;49.480;10.986;2022-07-10T11:40:55;1.77;;;0.90;;
55350;SDS011;62194;49.480;10.986;2022-07-10T11:41:00;1.70;;;0.80;;
55350;SDS011;62194;49.480;10.986;2022-07-10T11:41:16;1.85;;;0.80;;
55350;SDS011;62194;49.480;10.986;2022-07-10T11:41:22;2.33;;;0.80;;
55350;SDS011;62194;49.480;10.986;2022-07-10T11:41:28;2.80;;;0.80;;
55350;SDS011;62194;49.480;10.986;2022-07-10T11:41:34;3.23;;;0.90;;
55350;SDS011;62194;49.480;10.986;2022-07-10T11:41:46;2.86;;;0.80;;
55350;SDS011;62194;49.480;10.986;2022-07-10T11:41:52;2.65;;;0.90;;
55350;SDS011;62194;49.480;10.986;2022-07-10T11:41:58;2.65;;;0.90;;
55350;SDS011;62194;49.480;10.986;2022-07-10T11:42:03;2.27;;;0.87;;
55350;SDS011;62194;49.480;10.986;2022-07-10T11:42:10;2.03;;;0.90;;
55350;SDS011;62194;49.480;10.986;2022-07-10T11:42:15;1.90;;;0.90;;
55350;SDS011;62194;49.480;10.986;2022-07-10T11:42:21;1.52;;;0.80;;
55350;SDS011;62194;49.480;10.986;2022-07-10T11:42:27;1.55;;;0.75;;
55350;SDS011;62194;49.480;10.986;2022-07-10T11:42:47;1.57;;;0.70;;
55350;SDS011;62194;49.480;10.986;2022-07-10T11:43:02;3.51;;;0.84;;
55350;SDS011;62194;49.480;10.986;2022-07-10T11:43:10;3.40;;;0.94;;
55350;SDS011;62194;49.480;10.986;2022-07-10T11:43:20;2.88;;;1.00;;
55350;SDS011;62194;49.480;10.986;2022-07-10T11:43:28;2.59;;;0.90;;
55350;SDS011;62194;49.480;10.986;2022-07-10T11:43:34;2.50;;;0.90;;
55350;SDS011;62194;49.480;10.986;2022-07-10T11:43:52;1.93;;;0.90;;
55350;SDS011;62194;49.480;10.986;2022-07-10T11:44:01;1.81;;;0.75;;
55350;SDS011;62194;49.480;10.986;2022-07-10T11:44:12;2.47;;;0.83;;
55350;SDS011;62194;49.480;10.986;2022-07-10T11:44:19;2.38;;;0.90;;
55350;SDS011;62194;49.480;10.986;2022-07-10T11:44:26;2.17;;;0.90;;
55350;SDS011;62194;49.480;10.986;2022-07-10T11:44:32;1.83;;;0.87;;
55350;SDS011;62194;49.480;10.986;2022-07-10T11:44:38;1.50;;;0.80;;
55350;SDS011;62194;49.480;10.986;2022-07-10T11:44:43;1.73;;;0.80;;
55350;SDS011;62194;49.480;10.986;2022-07-10T11:44:49;2.10;;;0.80;;
55350;SDS011;62194;49.480;10.986;2022-07-10T11:44:54;1.80;;;0.73;;
55350;SDS011;62194;49.480;10.986;2022-07-10T11:45:03;1.80;;;0.77;;
55350;SDS011;62194;49.480;10.986;2022-07-10T11:45:30;2.05;;;0.86;;
55350;SDS011;62194;49.480;10.986;2022-07-10T11:45:37;2.47;;;1.00;;
55350;SDS011;62194;49.480;10.986;2022-07-10T11:45:43;2.17;;;0.90;;
55350;SDS011;62194;49.480;10.986;2022-07-10T11:45:49;2.20;;;0.80;;
55350;SDS011;62194;49.480;10.986;2022-07-10T11:45:55;2.34;;;0.80;;
55350;SDS011;62194;49.480;10.986;2022-07-10T11:46:06;2.10;;;0.90;;
55350;SDS011;62194;49.480;10.986;2022-07-10T11:46:12;1.73;;;0.90;;
55350;SDS011;62194;49.480;10.986;2022-07-10T11:46:19;1.70;;;0.92;;
55350;SDS011;62194;49.480;10.986;2022-07-10T11:46:27;1.43;;;0.90;;
55350;SDS011;62194;49.480;10.986;2022-07-10T11:46:34;2.10;;;0.80;;
55350;SDS011;62194;49.480;10.986;2022-07-10T11:46:39;2.15;;;0.70;;
55350;SDS011;62194;49.480;10.986;2022-07-10T11:46:47;1.90;;;0.70;;
55350;SDS011;62194;49.480;10.986;2022-07-10T11:46:54;2.10;;;0.80;;
55350;SDS011;62194;49.480;10.986;2022-07-10T11:47:01;1.80;;;0.80;;
55350;SDS011;62194;49.480;10.986;2022-07-10T11:47:08;1.80;;;0.93;;
55350;SDS011;62194;49.480;10.986;2022-07-10T11:47:14;2.10;;;1.00;;
55350;SDS011;62194;49.480;10.986;2022-07-10T11:47:19;2.27;;;1.00;;
55350;SDS011;62194;49.480;10.986;2022-07-10T11:47:25;2.80;;;1.00;;
55350;SDS011;62194;49.480;10.986;2022-07-10T11:47:30;3.63;;;1.07;;
55350;SDS011;62194;49.480;10.986;2022-07-10T11:47:38;3.37;;;1.07;;
55350;SDS011;62194;49.480;10.986;2022-07-10T11:47:44;3.15;;;1.05;;
55350;SDS011;62194;49.480;10.986;2022-07-10T11:47:49;3.15;;;1.10;;
55350;SDS011;62194;49.480;10.986;2022-07-10T11:47:55;3.07;;;1.10;;
55350;SDS011;62194;49.480;10.986;2022-07-10T11:48:01;2.35;;;1.05;;
55350;SDS011;62194;49.480;10.986;2022-07-10T11:48:06;2.50;;;1.00;;
55350;SDS011;62194;49.480;10.986;2022-07-10T11:48:17;2.93;;;0.90;;
55350;SDS011;62194;49.480;10.986;2022-07-10T11:48:23;3.29;;;1.00;;
55350;SDS011;62194;49.480;10.986;2022-07-10T11:48:29;3.13;;;1.00;;
55350;SDS011;62194;49.480;10.986;2022-07-10T11:48:37;3.10;;;1.08;;
55350;SDS011;62194;49.480;10.986;2022-07-10T11:48:44;2.90;;;1.10;;
55350;SDS011;62194;49.480;10.986;2022-07-10T11:48:51;2.15;;;1.00;;
55350;SDS011;62194;49.480;10.986;2022-07-10T11:49:05;1.87;;;0.90;;
55350;SDS011;62194;49.480;10.986;2022-07-10T11:49:14;1.44;;;0.90;;
55350;SDS011;62194;49.480;10.986;2022-07-10T11:49:22;1.73;;;0.94;;
55350;SDS011;62194;49.480;10.986;2022-07-10T11:49:28;2.22;;;0.95;;
55350;SDS011;62194;49.480;10.986;2022-07-10T11:49:34;2.77;;;0.90;;
55350;SDS011;62194;49.480;10.986;2022-07-10T11:49:48;3.24;;;0.90;;
55350;SDS011;62194;49.480;10.986;2022-07-10T11:49:54;3.20;;;0.80;;
55350;SDS011;62194;49.480;10.986;2022-07-10T11:50:00;2.87;;;0.80;;
55350;SDS011;62194;49.480;10.986;2022-07-10T11:50:05;2.85;;;0.80;;
55350;SDS011;62194;49.480;10.986;2022-07-10T11:50:12;3.20;;;0.80;;
55350;SDS011;62194;49.480;10.986;2022-07-10T11:50:17;3.27;;;0.80;;
55350;SDS011;62194;49.480;10.986;2022-07-10T11:50:23;3.17;;;0.80;;
55350;SDS011;62194;49.480;10.986;2022-07-10T11:50:34;3.13;;;0.80;;
55350;SDS011;62194;49.480;10.986;2022-07-10T11:50:41;2.35;;;0.80;;
55350;SDS011;62194;49.480;10.986;2022-07-10T11:50:47;2.17;;;0.80;;
55350;SDS011;62194;49.480;10.986;2022-07-10T11:50:53;2.30;;;0.80;;
55350;SDS011;62194;49.480;10.986;2022-07-10T11:50:58;2.50;;;0.80;;
55350;SDS011;62194;49.480;10.986;2022-07-10T11:51:14;2.40;;;0.80;;
55350;SDS011;62194;49.480;10.986;2022-07-10T11:51:30;2.33;;;0.80;;
55350;SDS011;62194;49.480;10.986;2022-07-10T11:51:36;1.55;;;0.77;;
55350;SDS011;62194;49.480;10.986;2022-07-10T11:51:45;1.73;;;0.84;;
55350;SDS011;62194;49.480;10.986;2022-07-10T11:51:51;1.92;;;0.85;;
55350;SDS011;62194;49.480;10.986;2022-07-10T11:52:00;1.87;;;0.90;;
55350;SDS011;62194;49.480;10.986;2022-07-10T11:52:08;2.00;;;1.00;;
55350;SDS011;62194;49.480;10.986;2022-07-10T11:52:14;1.90;;;0.93;;
55350;SDS011;62194;49.480;10.986;2022-07-10T11:52:19;1.55;;;0.93;;
55350;SDS011;62194;49.480;10.986;2022-07-10T11:52:24;1.23;;;0.80;;
55350;SDS011;62194;49.480;10.986;2022-07-10T11:52:34;1.60;;;0.85;;
55350;SDS011;62194;49.480;10.986;2022-07-10T11:52:40;1.59;;;0.75;;
55350;SDS011;62194;49.480;10.986;2022-07-10T11:52:46;1.60;;;0.73;;
55350;SDS011;62194;49.480;10.986;2022-07-10T11:52:52;2.25;;;0.80;;
55350;SDS011;62194;49.480;10.986;2022-07-10T11:52:59;2.15;;;0.82;;
55350;SDS011;62194;49.480;10.986;2022-07-10T11:53:04;1.95;;;0.90;;
55350;SDS011;62194;49.480;10.986;2022-07-10T11:53:10;2.05;;;1.00;;
55350;SDS011;62194;49.480;10.986;2022-07-10T11:53:22;2.33;;;1.05;;
55350;SDS011;62194;49.480;10.986;2022-07-10T11:53:29;2.95;;;1.20;;
55350;SDS011;62194;49.480;10.986;2022-07-10T11:53:34;3.43;;;1.20;;
55350;SDS011;62194;49.480;10.986;2022-07-10T11:53:39;4.57;;;1.20;;
55350;SDS011;62194;49.480;10.986;2022-07-10T11:54:01;4.43;;;1.13;;
55350;SDS011;62194;49.480;10.986;2022-07-10T11:54:13;3.63;;;1.02;;
55350;SDS011;62194;49.480;10.986;2022-07-10T11:54:23;2.86;;;0.90;;
55350;SDS011;62194;49.480;10.986;2022-07-10T11:54:29;2.97;;;0.90;;
55350;SDS011;62194;49.480;10.986;2022-07-10T11:54:34;2.97;;;0.90;;
55350;SDS011;62194;49.480;10.986;2022-07-10T11:54:42;3.55;;;0.85;;
55350;SDS011;62194;49.480;10.986;2022-07-10T11:54:49;4.08;;;0.98;;
55350;SDS011;62194;49.480;10.986;2022-07-10T11:54:55;3.53;;;1.00;;
55350;SDS011;62194;49.480;10.986;2022-07-10T11:55:12;2.90;;;1.00;;
55350;SDS011;62194;49.480;10.986;2022-07-10T11:55:20;2.22;;;0.96;;
55350;SDS011;62194;49.480;10.986;2022-07-10T11:55:27;1.77;;;1.01;;
55350;SDS011;62194;49.480;10.986;2022-07-10T11:55:41;1.90;;;1.10;;
55350;SDS011;62194;49.480;10.986;2022-07-10T11:55:49;1.83;;;1.10;;
55350;SDS011;62194;49.480;10.986;2022-07-10T11:55:55;1.77;;;0.95;;
55350;SDS011;62194;49.480;10.986;2022-07-10T11:56:02;1.52;;;0.80;;
55350;SDS011;62194;49.480;10.986;2022-07-10T11:56:10;1.60;;;0.80;;
55350;SDS011;62194;49.480;10.986;2022-07-10T11:56:18;1.94;;;0.90;;
55350;SDS011;62194;49.480;10.986;2022-07-10T11:56:27;1.73;;;0.90;;
55350;SDS011;62194;49.480;10.986;2022-07-10T11:56:35;1.56;;;1.00;;
55350;SDS011;62194;49.480;10.986;2022-07-10T11:56:45;1.40;;;0.98;;
55350;SDS011;62194;49.480;10.986;2022-07-10T11:56:53;1.57;;;1.02;;
55350;SDS011;62194;49.480;10.986;2022-07-10T11:57:04;2.15;;;1.13;;
55350;SDS011;62194;49.480;10.986;2022-07-10T11:57:11;2.71;;;1.15;;
55350;SDS011;62194;49.480;10.986;2022-07-10T11:57:17;2.55;;;1.02;;
55350;SDS011;62194;49.480;10.986;2022-07-10T11:57:22;2.27;;;1.00;;
55350;SDS011;62194;49.480;10.986;2022-07-10T11:57:27;2.00;;;0.90;;
55350;SDS011;62194;49.480;10.986;2022-07-10T11:57:38;1.27;;;0.80;;
55350;SDS011;62194;49.480;10.986;2022-07-10T11:57:46;1.25;;;0.91;;
55350;SDS011;62194;49.480;10.986;2022-07-10T11:57:53;1.48;;;0.98;;
55350;SDS011;62194;49.480;10.986;2022-07-10T11:57:58;2.03;;;1.02;;
55350;SDS011;62194;49.480;10.986;2022-07-10T11:58:13;2.10;;;1.07;;
55350;SDS011;62194;49.480;10.986;2022-07-10T11:58:20;2.83;;;1.13;;
55350;SDS011;62194;49.480;10.986;2022-07-10T11:58:27;2.80;;;1.10;;
55350;SDS011;62194;49.480;10.986;2022-07-10T11:58:32;3.07;;;1.10;;
55350;SDS011;62194;49.480;10.986;2022-07-10T11:58:37;2.77;;;1.10;;
55350;SDS011;62194;49.480;10.986;2022-07-10T11:58:43;2.17;;;1.03;;
55350;SDS011;62194;49.480;10.986;2022-07-10T11:58:55;2.42;;;1.10;;
55350;SDS011;62194;49.480;10.986;2022-07-10T11:59:08;2.45;;;1.01;;
55350;SDS011;62194;49.480;10.986;2022-07-10T11:59:15;2.74;;;1.00;;
55350;SDS011;62194;49.480;10.986;2022-07-10T11:59:25;2.60;;;1.00;;
55350;SDS011;62194;49.480;10.986;2022-07-10T11:59:32;2.84;;;0.99;;
55350;SDS011;62194;49.480;10.986;2022-07-10T11:59:37;3.15;;;1.00;;
55350;SDS011;62194;49.480;10.986;2022-07-10T11:59:43;3.10;;;1.03;;
55350;SDS011;62194;49.480;10.986;2022-07-10T11:59:48;2.80;;;1.00;;
55350;SDS011;62194;49.480;10.986;2022-07-10T11:59:54;2.70;;;1.00;;
55350;SDS011;62194;49.480;10.986;2022-07-10T11:59:59;2.42;;;0.98;;
55350;SDS011;62194;49.480;10.986;2022-07-10T12:00:05;1.90;;;0.90;;
55350;SDS011;62194;49.480;10.986;2022-07-10T12:00:22;1.65;;;0.80;;
55350;SDS011;62194;49.480;10.986;2022-07-10T12:00:30;1.70;;;0.82;;
55350;SDS011;62194;49.480;10.986;2022-07-10T12:00:38;1.83;;;0.90;;
55350;SDS011;62194;49.480;10.986;2022-07-10T12:00:44;2.17;;;0.90;;
55350;SDS011;62194;49.480;10.986;2022-07-10T12:01:02;2.58;;;0.94;;
55350;SDS011;62194;49.480;10.986;2022-07-10T12:01:11;2.84;;;1.00;;
55350;SDS011;62194;49.480;10.986;2022-07-10T12:01:20;2.20;;;1.00;;
55350;SDS011;62194;49.480;10.986;2022-07-10T12:01:26;2.53;;;1.10;;
55350;SDS011;62194;49.480;10.986;2022-07-10T12:01:34;2.50;;;1.10;;
55350;SDS011;62194;49.480;10.986;2022-07-10T12:01:49;2.70;;;1.00;;
55350;SDS011;62194;49.480;10.986;2022-07-10T12:01:56;2.42;;;1.00;;
55350;SDS011;62194;49.480;10.986;2022-07-10T12:02:01;1.85;;;0.85;;
55350;SDS011;62194;49.480;10.986;2022-07-10T12:02:07;1.50;;;0.80;;
55350;SDS011;62194;49.480;10.986;2022-07-10T12:02:21;1.30;;;0.80;;
55350;SDS011;62194;49.480;10.986;2022-07-10T12:02:27;1.65;;;0.90;;
55350;SDS011;62194;49.480;10.986;2022-07-10T12:02:32;2.00;;;0.90;;
55350;SDS011;62194;49.480;10.986;2022-07-10T12:02:38;2.03;;;0.90;;
55350;SDS011;62194;49.480;10.986;2022-07-10T12:02:43;2.28;;;0.90;;
55350;SDS011;62194;49.480;10.986;2022-07-10T12:02:49;2.03;;;0.90;;
55350;SDS011;62194;49.480;10.986;2022-07-10T12:02:55;2.00;;;0.90;;
55350;SDS011;62194;49.480;10.986;2022-07-10T12:03:15;1.97;;;0.83;;
55350;SDS011;62194;49.480;10.986;2022-07-10T12:03:22;2.24;;;1.00;;
55350;SDS011;62194;49.480;10.986;2022-07-10T12:03:28;2.33;;;1.00;;
55350;SDS011;62194;49.480;10.986;2022-07-10T12:03:33;2.22;;;0.98;;
55350;SDS011;62194;49.480;10.986;2022-07-10T12:03:39;1.90;;;0.90;;
55350;SDS011;62194;49.480;10.986;2022-07-10T12:03:44;1.73;;;0.80;;
55350;SDS011;62194;49.480;10.986;2022-07-10T12:03:53;1.67;;;0.70;;
55350;SDS011;62194;49.480;10.986;2022-07-10T12:04:09;1.86;;;0.68;;
55350;SDS011;62194;49.480;10.986;2022-07-10T12:04:19;2.30;;;0.80;;
55350;SDS011;62194;49.480;10.986;2022-07-10T12:04:29;2.14;;;0.88;;
55350;SDS011;62194;49.480;10.986;2022-07-10T12:04:36;2.27;;;0.93;;
55350;SDS011;62194;49.480;10.986;2022-07-10T12:04:41;1.90;;;1.00;;
55350;SDS011;62194;49.480;10.986;2022-07-10T12:04:47;1.90;;;1.00;;
55350;SDS011;62194;49.480;10.986;2022-07-10T12:04:53;2.23;;;1.00;;
55350;SDS011;62194;49.480;10.986;2022-07-10T12:04:58;2.33;;;1.02;;
55350;SDS011;62194;49.480;10.986;2022-07-10T12:05:03;2.10;;;1.00;;
55350;SDS011;62194;49.480;10.986;2022-07-10T12:05:32;2.07;;;1.04;;
55350;SDS011;62194;49.480;10.986;2022-07-10T12:05:48;2.10;;;0.91;;
55350;SDS011;62194;49.480;10.986;2022-07-10T12:05:55;2.45;;;0.95;;
55350;SDS011;62194;49.480;10.986;2022-07-10T12:06:07;1.71;;;0.88;;
55350;SDS011;62194;49.480;10.986;2022-07-10T12:06:12;1.47;;;0.80;;
55350;SDS011;62194;49.480;10.986;2022-07-10T12:06:18;1.67;;;0.90;;
55350;SDS011;62194;49.480;10.986;2022-07-10T12:06:26;1.35;;;0.90;;
55350;SDS011;62194;49.480;10.986;2022-07-10T12:06:53;1.88;;;0.96;;
55350;SDS011;62194;49.480;10.986;2022-07-10T12:06:59;2.64;;;1.10;;
55350;SDS011;62194;49.480;10.986;2022-07-10T12:07:04;2.57;;;1.00;;
55350;SDS011;62194;49.480;10.986;2022-07-10T12:07:10;2.30;;;0.90;;
55350;SDS011;62194;49.480;10.986;2022-07-10T12:07:15;2.23;;;0.83;;
55350;SDS011;62194;49.480;10.986;2022-07-10T12:07:28;2.22;;;0.90;;
55350;SDS011;62194;49.480;10.986;2022-07-10T12:07:33;2.20;;;0.90;;
55350;SDS011;62194;49.480;10.986;2022-07-10T12:07:39;2.03;;;0.90;;
55350;SDS011;62194;49.480;10.986;2022-07-10T12:07:44;1.77;;;0.90;;
55350;SDS011;62194;49.480;10.986;2022-07-10T12:07:50;1.70;;;0.90;;
55350;SDS011;62194;49.480;10.986;2022-07-10T12:07:56;1.60;;;0.90;;
55350;SDS011;62194;49.480;10.986;2022-07-10T12:08:02;1.42;;;0.95;;
55350;SDS011;62194;49.480;10.986;2022-07-10T12:08:09;2.00;;;1.00;;
55350;SDS011;62194;49.480;10.986;2022-07-10T12:08:15;2.60;;;1.00;;
55350;SDS011;62194;49.480;10.986;2022-07-10T12:08:21;2.67;;;1.02;;
55350;SDS011;62194;49.480;10.986;2022-07-10T12:08:27;2.83;;;1.10;;
55350;SDS011;62194;49.480;10.986;2022-07-10T12:08:45;3.05;;;1.10;;
55350;SDS011;62194;49.480;10.986;2022-07-10T12:08:51;2.76;;;1.05;;
55350;SDS011;62194;49.480;10.986;2022-07-10T12:09:07;2.50;;;1.00;;
55350;SDS011;62194;49.480;10.986;2022-07-10T12:09:16;2.65;;;1.06;;
55350;SDS011;62194;49.480;10.986;2022-07-10T12:09:24;2.33;;;1.03;;
55350;SDS011;62194;49.480;10.986;2022-07-10T12:09:30;2.33;;;0.90;;
55350;SDS011;62194;49.480;10.986;2022-07-10T12:09:36;1.90;;;0.90;;
55350;SDS011;62194;49.480;10.986;2022-07-10T12:09:44;2.68;;;0.90;;
55350;SDS011;62194;49.480;10.986;2022-07-10T12:09:58;3.04;;;0.98;;
55350;SDS011;62194;49.480;10.986;2022-07-10T12:10:06;3.58;;;1.10;;
55350;SDS011;62194;49.480;10.986;2022-07-10T12:10:25;3.20;;;1.15;;
55350;SDS011;62194;49.480;10.986;2022-07-10T12:10:32;2.89;;;1.10;;
55350;SDS011;62194;49.480;10.986;2022-07-10T12:10:40;2.50;;;1.00;;
55350;SDS011;62194;49.480;10.986;2022-07-10T12:10:49;1.30;;;0.80;;
55350;SDS011;62194;49.480;10.986;2022-07-10T12:10:54;1.47;;;0.80;;
55350;SDS011;62194;49.480;10.986;2022-07-10T12:11:00;1.10;;;0.70;;
55350;SDS011;62194;49.480;10.986;2022-07-10T12:11:17;1.91;;;0.74;;
55350;SDS011;62194;49.480;10.986;2022-07-10T12:11:23;2.58;;;0.77;;
55350;SDS011;62194;49.480;10.986;2022-07-10T12:11:29;2.30;;;0.70;;
55350;SDS011;62194;49.480;10.986;2022-07-10T12:11:37;2.17;;;0.80;;
55350;SDS011;62194;49.480;10.986;2022-07-10T12:11:43;1.83;;;0.85;;
55350;SDS011;62194;49.480;10.986;2022-07-10T12:12:05;1.41;;;0.80;;
55350;SDS011;62194;49.480;10.986;2022-07-10T12:12:14;1.38;;;0.75;;
55350;SDS011;62194;49.480;10.986;2022-07-10T12:12:22;1.65;;;0.70;;
55350;SDS011;62194;49.480;10.986;2022-07-10T12:12:27;2.10;;;0.85;;
55350;SDS011;62194;49.480;10.986;2022-07-10T12:12:33;2.23;;;0.93;;
55350;SDS011;62194;49.480;10.986;2022-07-10T12:12:38;2.30;;;1.00;;
55350;SDS011;62194;49.480;10.986;2022-07-10T12:12:43;2.58;;;1.02;;
55350;SDS011;62194;49.480;10.986;2022-07-10T12:12:49;2.50;;;1.03;;
55350;SDS011;62194;49.480;10.986;2022-07-10T12:13:08;2.13;;;1.00;;
55350;SDS011;62194;49.480;10.986;2022-07-10T12:13:16;2.34;;;1.00;;
55350;SDS011;62194;49.480;10.986;2022-07-10T12:13:21;2.55;;;1.00;;
55350;SDS011;62194;49.480;10.986;2022-07-10T12:13:27;2.50;;;1.07;;
55350;SDS011;62194;49.480;10.986;2022-07-10T12:13:32;3.00;;;1.20;;
55350;SDS011;62194;49.480;10.986;2022-07-10T12:13:37;2.95;;;1.25;;
55350;SDS011;62194;49.480;10.986;2022-07-10T12:13:47;2.65;;;1.20;;
55350;SDS011;62194;49.480;10.986;2022-07-10T12:13:56;2.60;;;1.20;;
55350;SDS011;62194;49.480;10.986;2022-07-10T12:14:15;1.76;;;1.04;;
55350;SDS011;62194;49.480;10.986;2022-07-10T12:14:23;1.83;;;1.06;;
55350;SDS011;62194;49.480;10.986;2022-07-10T12:14:30;2.13;;;1.07;;
55350;SDS011;62194;49.480;10.986;2022-07-10T12:14:36;2.38;;;1.10;;
55350;SDS011;62194;49.480;10.986;2022-07-10T12:14:43;2.85;;;1.10;;
55350;SDS011;62194;49.480;10.986;2022-07-10T12:14:48;2.90;;;1.10;;
55350;SDS011;62194;49.480;10.986;2022-07-10T12:14:53;2.65;;;1.10;;
55350;SDS011;62194;49.480;10.986;2022-07-10T12:14:59;2.50;;;1.10;;
55350;SDS011;62194;49.480;10.986;2022-07-10T12:15:04;2.80;;;1.10;;
55350;SDS011;62194;49.480;10.986;2022-07-10T12:15:10;2.10;;;1.00;;
55350;SDS011;62194;49.480;10.986;2022-07-10T12:15:34;1.87;;;0.87;;
55350;SDS011;62194;49.480;10.986;2022-07-10T12:15:43;1.40;;;0.75;;
55350;SDS011;62194;49.480;10.986;2022-07-10T12:15:50;1.30;;;0.73;;
55350;SDS011;62194;49.480;10.986;2022-07-10T12:15:55;1.38;;;0.80;;
55350;SDS011;62194;49.480;10.986;2022-07-10T12:16:00;1.87;;;0.90;;
55350;SDS011;62194;49.480;10.986;2022-07-10T12:16:08;1.90;;;0.87;;
55350;SDS011;62194;49.480;10.986;2022-07-10T12:16:16;2.03;;;0.90;;
55350;SDS011;62194;49.480;10.986;2022-07-10T12:16:22;2.03;;;0.80;;
55350;SDS011;62194;49.480;10.986;2022-07-10T12:16:28;1.77;;;0.80;;
55350;SDS011;62194;49.480;10.986;2022-07-10T12:16:41;1.41;;;0.80;;
55350;SDS011;62194;49.480;10.986;2022-07-10T12:16:50;1.70;;;0.90;;
55350;SDS011;62194;49.480;10.986;2022-07-10T12:16:57;1.93;;;1.10;;